sensor_id;sensor_type;location;lat;lon;timestamp;temperature;humidity
10536;DHT22;5316;49.538;8.352;2024-03-08T00:01:06;6.80;99.90
10536;DHT22;5316;49.538;8.352;2024-03-08T00:03:33;6.80;99.90
10536;DHT22;5316;49.538;8.352;2024-03-08T00:06:00;6.80;99.90
10536;DHT22;5316;49.538;8.352;2024-03-08T00:08:27;6.60;1.00
10536;DHT22;5316;49.538;8.352;2024-03-08T00:10:53;6.60;1.00
10536;DHT22;5316;49.538;8.352;2024-03-08T00:13:21;6.60;1.00
10536;DHT22;5316;49.538;8.352;2024-03-08T00:15:50;6.60;1.00
10536;DHT22;5316;49.538;8.352;2024-03-08T00:18:17;6.50;1.00
10536;DHT22;5316;49.538;8.352;2024-03-08T00:20:43;6.50;1.00
10536;DHT22;5316;49.538;8.352;2024-03-08T00:23:11;6.40;1.00
10536;DHT22;5316;49.538;8.352;2024-03-08T00:25:37;6.40;1.00
10536;DHT22;5316;49.538;8.352;2024-03-08T00:28:04;6.40;1.00
10536;DHT22;5316;49.538;8.352;2024-03-08T00:30:33;6.30;1.00
10536;DHT22;5316;49.538;8.352;2024-03-08T00:33:00;6.30;1.00
10536;DHT22;5316;49.538;8.352;2024-03-08T00:35:27;6.30;1.00
10536;DHT22;5316;49.538;8.352;2024-03-08T00:37:53;6.20;1.00
10536;DHT22;5316;49.538;8.352;2024-03-08T00:40:21;6.20;1.00
10536;DHT22;5316;49.538;8.352;2024-03-08T00:42:49;6.10;1.00
10536;DHT22;5316;49.538;8.352;2024-03-08T00:47:47;6.10;1.00
10536;DHT22;5316;49.538;8.352;2024-03-08T00:50:14;6.10;1.00
10536;DHT22;5316;49.538;8.352;2024-03-08T00:52:41;6.00;1.00
10536;DHT22;5316;49.538;8.352;2024-03-08T00:55:08;6.00;1.00
10536;DHT22;5316;49.538;8.352;2024-03-08T00:57:36;6.00;1.00
10536;DHT22;5316;49.538;8.352;2024-03-08T01:00:05;5.90;1.00
10536;DHT22;5316;49.538;8.352;2024-03-08T01:02:34;5.90;1.00
10536;DHT22;5316;49.538;8.352;2024-03-08T01:05:03;5.90;1.00
10536;DHT22;5316;49.538;8.352;2024-03-08T01:07:33;5.90;1.00
10536;DHT22;5316;49.538;8.352;2024-03-08T01:10:00;5.80;1.00
10536;DHT22;5316;49.538;8.352;2024-03-08T01:12:27;5.80;1.00
10536;DHT22;5316;49.538;8.352;2024-03-08T01:14:53;5.80;1.00
10536;DHT22;5316;49.538;8.352;2024-03-08T01:17:20;5.70;1.00
10536;DHT22;5316;49.538;8.352;2024-03-08T01:19:47;5.70;6.60
10536;DHT22;5316;49.538;8.352;2024-03-08T01:22:15;5.70;44.50
10536;DHT22;5316;49.538;8.352;2024-03-08T01:24:42;5.60;55.70
10536;DHT22;5316;49.538;8.352;2024-03-08T01:27:08;5.60;72.60
10536;DHT22;5316;49.538;8.352;2024-03-08T01:29:36;5.50;99.90
10536;DHT22;5316;49.538;8.352;2024-03-08T01:32:03;5.60;99.90
10536;DHT22;5316;49.538;8.352;2024-03-08T01:34:30;5.50;99.90
10536;DHT22;5316;49.538;8.352;2024-03-08T01:36:57;5.50;99.90
10536;DHT22;5316;49.538;8.352;2024-03-08T01:39:25;5.50;99.90
10536;DHT22;5316;49.538;8.352;2024-03-08T01:41:52;5.50;99.90
10536;DHT22;5316;49.538;8.352;2024-03-08T01:44:19;5.50;99.90
10536;DHT22;5316;49.538;8.352;2024-03-08T01:46:46;5.50;99.90
10536;DHT22;5316;49.538;8.352;2024-03-08T01:49:14;5.50;99.90
10536;DHT22;5316;49.538;8.352;2024-03-08T01:51:43;5.50;99.90
10536;DHT22;5316;49.538;8.352;2024-03-08T01:54:11;5.50;99.90
10536;DHT22;5316;49.538;8.352;2024-03-08T01:56:40;5.40;99.90
10536;DHT22;5316;49.538;8.352;2024-03-08T01:59:07;5.40;99.90
10536;DHT22;5316;49.538;8.352;2024-03-08T02:01:34;5.40;99.90
10536;DHT22;5316;49.538;8.352;2024-03-08T02:04:01;5.40;99.90
10536;DHT22;5316;49.538;8.352;2024-03-08T02:06:28;5.40;99.90
10536;DHT22;5316;49.538;8.352;2024-03-08T02:08:55;5.40;99.90
10536;DHT22;5316;49.538;8.352;2024-03-08T02:11:21;5.30;99.90
10536;DHT22;5316;49.538;8.352;2024-03-08T02:13:50;5.30;99.90
10536;DHT22;5316;49.538;8.352;2024-03-08T02:16:20;5.30;99.90
10536;DHT22;5316;49.538;8.352;2024-03-08T02:18:47;5.30;99.90
10536;DHT22;5316;49.538;8.352;2024-03-08T02:21:17;5.30;99.90
10536;DHT22;5316;49.538;8.352;2024-03-08T02:23:44;5.20;99.90
10536;DHT22;5316;49.538;8.352;2024-03-08T02:26:11;5.20;99.90
10536;DHT22;5316;49.538;8.352;2024-03-08T02:28:38;5.20;99.90
10536;DHT22;5316;49.538;8.352;2024-03-08T02:31:08;5.20;99.90
10536;DHT22;5316;49.538;8.352;2024-03-08T02:33:35;5.20;99.90
10536;DHT22;5316;49.538;8.352;2024-03-08T02:36:01;5.20;99.90
10536;DHT22;5316;49.538;8.352;2024-03-08T02:38:30;5.20;99.90
10536;DHT22;5316;49.538;8.352;2024-03-08T02:40:57;5.10;99.90
10536;DHT22;5316;49.538;8.352;2024-03-08T02:43:24;5.10;99.90
10536;DHT22;5316;49.538;8.352;2024-03-08T02:45:51;5.10;99.90
10536;DHT22;5316;49.538;8.352;2024-03-08T02:48:18;5.10;99.90
10536;DHT22;5316;49.538;8.352;2024-03-08T02:50:46;5.00;99.90
10536;DHT22;5316;49.538;8.352;2024-03-08T02:53:13;5.00;99.90
10536;DHT22;5316;49.538;8.352;2024-03-08T02:55:42;5.00;99.90
10536;DHT22;5316;49.538;8.352;2024-03-08T02:58:09;5.00;99.90
10536;DHT22;5316;49.538;8.352;2024-03-08T03:00:36;5.00;99.90
10536;DHT22;5316;49.538;8.352;2024-03-08T03:03:04;4.90;99.90
10536;DHT22;5316;49.538;8.352;2024-03-08T03:05:32;4.90;99.90
10536;DHT22;5316;49.538;8.352;2024-03-08T03:07:59;4.90;99.90
10536;DHT22;5316;49.538;8.352;2024-03-08T03:10:26;4.90;99.90
10536;DHT22;5316;49.538;8.352;2024-03-08T03:12:54;4.90;99.90
10536;DHT22;5316;49.538;8.352;2024-03-08T03:15:21;4.80;99.90
10536;DHT22;5316;49.538;8.352;2024-03-08T03:17:48;4.80;99.90
10536;DHT22;5316;49.538;8.352;2024-03-08T03:20:16;4.80;99.90
10536;DHT22;5316;49.538;8.352;2024-03-08T03:22:48;4.80;99.90
10536;DHT22;5316;49.538;8.352;2024-03-08T03:25:17;4.80;99.90
10536;DHT22;5316;49.538;8.352;2024-03-08T03:27:49;4.80;99.50
10536;DHT22;5316;49.538;8.352;2024-03-08T03:30:17;4.80;78.00
10536;DHT22;5316;49.538;8.352;2024-03-08T03:32:47;4.80;98.20
10536;DHT22;5316;49.538;8.352;2024-03-08T03:35:15;4.80;99.90
10536;DHT22;5316;49.538;8.352;2024-03-08T03:37:42;4.70;99.90
10536;DHT22;5316;49.538;8.352;2024-03-08T03:40:12;4.70;99.90
10536;DHT22;5316;49.538;8.352;2024-03-08T03:42:39;4.70;99.90
10536;DHT22;5316;49.538;8.352;2024-03-08T03:45:06;4.70;99.90
10536;DHT22;5316;49.538;8.352;2024-03-08T03:47:36;4.70;99.90
10536;DHT22;5316;49.538;8.352;2024-03-08T03:50:05;4.70;99.90
10536;DHT22;5316;49.538;8.352;2024-03-08T03:52:31;4.70;99.90
10536;DHT22;5316;49.538;8.352;2024-03-08T03:54:58;4.70;99.90
10536;DHT22;5316;49.538;8.352;2024-03-08T03:57:25;4.60;99.90
10536;DHT22;5316;49.538;8.352;2024-03-08T03:59:52;4.60;99.90
10536;DHT22;5316;49.538;8.352;2024-03-08T04:02:18;4.60;99.90
10536;DHT22;5316;49.538;8.352;2024-03-08T04:04:47;4.50;99.90
10536;DHT22;5316;49.538;8.352;2024-03-08T04:07:14;4.60;99.90
10536;DHT22;5316;49.538;8.352;2024-03-08T04:09:42;4.50;99.90
10536;DHT22;5316;49.538;8.352;2024-03-08T04:12:08;4.50;99.90
10536;DHT22;5316;49.538;8.352;2024-03-08T04:14:35;4.50;99.90
10536;DHT22;5316;49.538;8.352;2024-03-08T04:17:02;4.50;99.90
10536;DHT22;5316;49.538;8.352;2024-03-08T04:19:30;4.50;99.90
10536;DHT22;5316;49.538;8.352;2024-03-08T04:21:58;4.40;99.90
10536;DHT22;5316;49.538;8.352;2024-03-08T04:24:26;4.40;99.90
10536;DHT22;5316;49.538;8.352;2024-03-08T04:26:53;4.40;99.90
10536;DHT22;5316;49.538;8.352;2024-03-08T04:29:19;4.30;99.90
10536;DHT22;5316;49.538;8.352;2024-03-08T04:31:45;4.30;99.90
10536;DHT22;5316;49.538;8.352;2024-03-08T04:34:12;4.20;99.90
10536;DHT22;5316;49.538;8.352;2024-03-08T04:36:40;4.20;99.90
10536;DHT22;5316;49.538;8.352;2024-03-08T04:39:08;4.20;99.90
10536;DHT22;5316;49.538;8.352;2024-03-08T04:41:38;4.20;99.90
10536;DHT22;5316;49.538;8.352;2024-03-08T04:44:05;4.10;99.90
10536;DHT22;5316;49.538;8.352;2024-03-08T04:46:32;4.10;99.90
10536;DHT22;5316;49.538;8.352;2024-03-08T04:49:00;4.10;1.00
10536;DHT22;5316;49.538;8.352;2024-03-08T04:51:27;4.10;1.00
10536;DHT22;5316;49.538;8.352;2024-03-08T04:53:54;4.10;1.00
10536;DHT22;5316;49.538;8.352;2024-03-08T04:56:23;4.00;1.00
10536;DHT22;5316;49.538;8.352;2024-03-08T04:58:51;4.00;1.00
10536;DHT22;5316;49.538;8.352;2024-03-08T05:01:17;4.00;1.00
10536;DHT22;5316;49.538;8.352;2024-03-08T05:03:44;4.00;1.00
10536;DHT22;5316;49.538;8.352;2024-03-08T05:06:13;3.90;1.00
10536;DHT22;5316;49.538;8.352;2024-03-08T05:08:39;3.90;1.00
10536;DHT22;5316;49.538;8.352;2024-03-08T05:11:06;3.90;1.00
10536;DHT22;5316;49.538;8.352;2024-03-08T05:13:34;3.90;1.00
10536;DHT22;5316;49.538;8.352;2024-03-08T05:16:01;3.90;1.00
10536;DHT22;5316;49.538;8.352;2024-03-08T05:18:27;3.80;1.00
10536;DHT22;5316;49.538;8.352;2024-03-08T05:20:54;3.80;1.00
10536;DHT22;5316;49.538;8.352;2024-03-08T05:23:21;3.80;1.00
10536;DHT22;5316;49.538;8.352;2024-03-08T05:25:48;3.80;1.00
10536;DHT22;5316;49.538;8.352;2024-03-08T05:28:14;3.80;1.00
10536;DHT22;5316;49.538;8.352;2024-03-08T05:30:42;3.80;1.00
10536;DHT22;5316;49.538;8.352;2024-03-08T05:33:09;3.80;1.00
10536;DHT22;5316;49.538;8.352;2024-03-08T05:35:36;3.80;1.00
10536;DHT22;5316;49.538;8.352;2024-03-08T05:38:03;3.70;1.00
10536;DHT22;5316;49.538;8.352;2024-03-08T05:40:30;3.70;1.00
10536;DHT22;5316;49.538;8.352;2024-03-08T05:42:58;3.70;46.00
10536;DHT22;5316;49.538;8.352;2024-03-08T05:45:25;3.60;99.90
10536;DHT22;5316;49.538;8.352;2024-03-08T05:47:53;3.60;99.90
10536;DHT22;5316;49.538;8.352;2024-03-08T05:50:20;3.60;99.90
10536;DHT22;5316;49.538;8.352;2024-03-08T05:52:47;3.60;99.90
10536;DHT22;5316;49.538;8.352;2024-03-08T05:55:15;3.60;99.90
10536;DHT22;5316;49.538;8.352;2024-03-08T05:57:42;3.50;99.90
10536;DHT22;5316;49.538;8.352;2024-03-08T06:00:10;3.50;99.90
10536;DHT22;5316;49.538;8.352;2024-03-08T06:02:37;3.50;99.90
10536;DHT22;5316;49.538;8.352;2024-03-08T06:05:08;3.50;99.90
10536;DHT22;5316;49.538;8.352;2024-03-08T06:07:36;3.50;99.90
10536;DHT22;5316;49.538;8.352;2024-03-08T06:10:07;3.50;99.90
10536;DHT22;5316;49.538;8.352;2024-03-08T06:12:35;3.50;99.90
10536;DHT22;5316;49.538;8.352;2024-03-08T06:15:07;3.50;99.90
10536;DHT22;5316;49.538;8.352;2024-03-08T06:17:35;3.40;99.90
10536;DHT22;5316;49.538;8.352;2024-03-08T06:20:01;3.40;1.00
10536;DHT22;5316;49.538;8.352;2024-03-08T06:22:30;3.50;1.00
10536;DHT22;5316;49.538;8.352;2024-03-08T06:24:57;3.40;1.00
10536;DHT22;5316;49.538;8.352;2024-03-08T06:27:24;3.50;1.00
10536;DHT22;5316;49.538;8.352;2024-03-08T06:29:50;3.50;1.00
10536;DHT22;5316;49.538;8.352;2024-03-08T06:32:17;3.50;1.00
10536;DHT22;5316;49.538;8.352;2024-03-08T06:34:44;3.50;1.00
10536;DHT22;5316;49.538;8.352;2024-03-08T06:37:11;3.50;1.00
10536;DHT22;5316;49.538;8.352;2024-03-08T06:39:39;3.50;1.00
10536;DHT22;5316;49.538;8.352;2024-03-08T06:42:06;3.60;1.00
10536;DHT22;5316;49.538;8.352;2024-03-08T06:44:34;3.60;1.00
10536;DHT22;5316;49.538;8.352;2024-03-08T06:47:01;3.60;1.00
10536;DHT22;5316;49.538;8.352;2024-03-08T06:49:28;3.60;1.00
10536;DHT22;5316;49.538;8.352;2024-03-08T06:51:55;3.60;1.00
10536;DHT22;5316;49.538;8.352;2024-03-08T06:54:22;3.60;1.00
10536;DHT22;5316;49.538;8.352;2024-03-08T06:56:51;3.70;99.90
10536;DHT22;5316;49.538;8.352;2024-03-08T06:59:18;3.70;99.90
10536;DHT22;5316;49.538;8.352;2024-03-08T07:01:45;3.80;99.90
10536;DHT22;5316;49.538;8.352;2024-03-08T07:04:12;3.80;99.90
10536;DHT22;5316;49.538;8.352;2024-03-08T07:06:38;3.80;99.90
10536;DHT22;5316;49.538;8.352;2024-03-08T07:09:06;3.90;99.90
10536;DHT22;5316;49.538;8.352;2024-03-08T07:11:33;3.90;99.90
10536;DHT22;5316;49.538;8.352;2024-03-08T07:14:01;4.00;99.90
10536;DHT22;5316;49.538;8.352;2024-03-08T07:16:31;4.10;99.90
10536;DHT22;5316;49.538;8.352;2024-03-08T07:18:57;4.10;99.90
10536;DHT22;5316;49.538;8.352;2024-03-08T07:21:24;4.30;99.90
10536;DHT22;5316;49.538;8.352;2024-03-08T07:23:51;4.30;99.90
10536;DHT22;5316;49.538;8.352;2024-03-08T07:26:38;4.40;54.60
10536;DHT22;5316;49.538;8.352;2024-03-08T07:29:07;4.40;39.30
10536;DHT22;5316;49.538;8.352;2024-03-08T07:31:34;4.50;4.70
10536;DHT22;5316;49.538;8.352;2024-03-08T07:34:10;4.60;1.00
10536;DHT22;5316;49.538;8.352;2024-03-08T07:36:39;4.60;1.00
10536;DHT22;5316;49.538;8.352;2024-03-08T07:39:05;4.70;1.00
10536;DHT22;5316;49.538;8.352;2024-03-08T07:41:37;4.80;1.00
10536;DHT22;5316;49.538;8.352;2024-03-08T07:44:06;4.80;1.00
10536;DHT22;5316;49.538;8.352;2024-03-08T07:46:33;4.90;1.00
10536;DHT22;5316;49.538;8.352;2024-03-08T07:49:00;5.00;99.90
10536;DHT22;5316;49.538;8.352;2024-03-08T07:51:27;5.10;99.90
10536;DHT22;5316;49.538;8.352;2024-03-08T07:53:53;5.20;99.90
10536;DHT22;5316;49.538;8.352;2024-03-08T07:56:21;5.30;99.90
10536;DHT22;5316;49.538;8.352;2024-03-08T07:58:47;5.40;99.90
10536;DHT22;5316;49.538;8.352;2024-03-08T08:01:19;5.50;99.90
10536;DHT22;5316;49.538;8.352;2024-03-08T08:03:46;5.60;99.90
10536;DHT22;5316;49.538;8.352;2024-03-08T08:06:15;5.60;53.70
10536;DHT22;5316;49.538;8.352;2024-03-08T08:08:41;5.70;14.80
10536;DHT22;5316;49.538;8.352;2024-03-08T08:11:08;5.80;1.00
10536;DHT22;5316;49.538;8.352;2024-03-08T08:13:36;5.90;1.00
10536;DHT22;5316;49.538;8.352;2024-03-08T08:16:05;6.10;1.00
10536;DHT22;5316;49.538;8.352;2024-03-08T08:18:33;6.20;1.00
10536;DHT22;5316;49.538;8.352;2024-03-08T08:21:01;6.20;1.00
10536;DHT22;5316;49.538;8.352;2024-03-08T08:23:28;6.30;1.00
10536;DHT22;5316;49.538;8.352;2024-03-08T08:25:55;6.40;99.90
10536;DHT22;5316;49.538;8.352;2024-03-08T08:28:22;6.40;99.90
10536;DHT22;5316;49.538;8.352;2024-03-08T08:30:50;6.40;99.90
10536;DHT22;5316;49.538;8.352;2024-03-08T08:33:16;6.40;99.90
10536;DHT22;5316;49.538;8.352;2024-03-08T08:35:45;6.40;99.90
10536;DHT22;5316;49.538;8.352;2024-03-08T08:38:13;6.50;99.90
10536;DHT22;5316;49.538;8.352;2024-03-08T08:40:41;6.50;99.90
10536;DHT22;5316;49.538;8.352;2024-03-08T08:43:07;6.60;99.90
10536;DHT22;5316;49.538;8.352;2024-03-08T08:45:34;6.60;99.90
10536;DHT22;5316;49.538;8.352;2024-03-08T08:48:01;6.70;99.90
10536;DHT22;5316;49.538;8.352;2024-03-08T08:50:28;6.70;99.90
10536;DHT22;5316;49.538;8.352;2024-03-08T08:52:56;6.80;99.90
10536;DHT22;5316;49.538;8.352;2024-03-08T08:55:24;6.80;99.90
10536;DHT22;5316;49.538;8.352;2024-03-08T08:57:51;6.90;99.90
10536;DHT22;5316;49.538;8.352;2024-03-08T09:00:18;7.00;99.90
10536;DHT22;5316;49.538;8.352;2024-03-08T09:02:46;7.00;99.90
10536;DHT22;5316;49.538;8.352;2024-03-08T09:05:13;7.20;99.90
10536;DHT22;5316;49.538;8.352;2024-03-08T09:07:42;7.30;99.90
10536;DHT22;5316;49.538;8.352;2024-03-08T09:10:11;7.30;19.80
10536;DHT22;5316;49.538;8.352;2024-03-08T09:12:40;7.50;90.10
10536;DHT22;5316;49.538;8.352;2024-03-08T09:15:07;7.60;99.90
10536;DHT22;5316;49.538;8.352;2024-03-08T09:17:36;7.80;18.60
10536;DHT22;5316;49.538;8.352;2024-03-08T09:20:06;8.00;1.00
10536;DHT22;5316;49.538;8.352;2024-03-08T09:22:33;7.90;1.00
10536;DHT22;5316;49.538;8.352;2024-03-08T09:24:59;8.00;1.00
10536;DHT22;5316;49.538;8.352;2024-03-08T09:27:27;7.90;1.00
10536;DHT22;5316;49.538;8.352;2024-03-08T09:29:55;8.00;1.00
10536;DHT22;5316;49.538;8.352;2024-03-08T09:32:22;8.00;1.00
10536;DHT22;5316;49.538;8.352;2024-03-08T09:34:49;8.00;1.00
10536;DHT22;5316;49.538;8.352;2024-03-08T09:37:15;8.00;1.00
10536;DHT22;5316;49.538;8.352;2024-03-08T09:39:43;8.00;1.00
10536;DHT22;5316;49.538;8.352;2024-03-08T09:42:09;8.10;1.00
10536;DHT22;5316;49.538;8.352;2024-03-08T09:44:44;8.10;1.00
10536;DHT22;5316;49.538;8.352;2024-03-08T09:47:13;8.20;1.00
10536;DHT22;5316;49.538;8.352;2024-03-08T09:49:40;8.20;1.00
10536;DHT22;5316;49.538;8.352;2024-03-08T09:52:07;8.20;1.00
10536;DHT22;5316;49.538;8.352;2024-03-08T09:54:35;8.20;1.00
10536;DHT22;5316;49.538;8.352;2024-03-08T09:57:04;8.20;1.00
10536;DHT22;5316;49.538;8.352;2024-03-08T09:59:31;8.20;1.00
10536;DHT22;5316;49.538;8.352;2024-03-08T10:02:15;8.20;1.00
10536;DHT22;5316;49.538;8.352;2024-03-08T10:04:42;8.20;1.00
10536;DHT22;5316;49.538;8.352;2024-03-08T10:07:11;8.30;1.00
10536;DHT22;5316;49.538;8.352;2024-03-08T10:09:38;8.40;1.00
10536;DHT22;5316;49.538;8.352;2024-03-08T10:12:06;8.40;1.00
10536;DHT22;5316;49.538;8.352;2024-03-08T10:14:33;8.40;1.00
10536;DHT22;5316;49.538;8.352;2024-03-08T10:17:00;8.40;1.00
10536;DHT22;5316;49.538;8.352;2024-03-08T10:19:28;8.40;1.00
10536;DHT22;5316;49.538;8.352;2024-03-08T10:21:55;8.40;1.00
10536;DHT22;5316;49.538;8.352;2024-03-08T10:24:24;8.50;1.00
10536;DHT22;5316;49.538;8.352;2024-03-08T10:26:52;8.50;1.00
10536;DHT22;5316;49.538;8.352;2024-03-08T10:29:19;8.50;1.00
10536;DHT22;5316;49.538;8.352;2024-03-08T10:31:46;8.60;1.00
10536;DHT22;5316;49.538;8.352;2024-03-08T10:34:13;8.60;1.00
10536;DHT22;5316;49.538;8.352;2024-03-08T10:36:41;8.60;1.00
10536;DHT22;5316;49.538;8.352;2024-03-08T10:39:17;8.70;1.00
10536;DHT22;5316;49.538;8.352;2024-03-08T10:41:53;8.80;1.00
10536;DHT22;5316;49.538;8.352;2024-03-08T10:44:40;8.80;99.90
10536;DHT22;5316;49.538;8.352;2024-03-08T10:47:17;8.80;1.00
10536;DHT22;5316;49.538;8.352;2024-03-08T10:49:51;8.90;1.00
10536;DHT22;5316;49.538;8.352;2024-03-08T10:52:21;8.90;1.00
10536;DHT22;5316;49.538;8.352;2024-03-08T10:54:48;9.00;1.00
10536;DHT22;5316;49.538;8.352;2024-03-08T10:57:18;9.00;99.90
10536;DHT22;5316;49.538;8.352;2024-03-08T10:59:47;9.00;99.90
10536;DHT22;5316;49.538;8.352;2024-03-08T11:02:16;9.00;99.90
10536;DHT22;5316;49.538;8.352;2024-03-08T11:04:48;9.10;99.90
10536;DHT22;5316;49.538;8.352;2024-03-08T11:07:16;9.20;99.90
10536;DHT22;5316;49.538;8.352;2024-03-08T11:09:47;9.30;99.90
10536;DHT22;5316;49.538;8.352;2024-03-08T11:12:22;9.40;99.90
10536;DHT22;5316;49.538;8.352;2024-03-08T11:14:52;9.50;99.90
10536;DHT22;5316;49.538;8.352;2024-03-08T11:20:11;9.50;99.90
10536;DHT22;5316;49.538;8.352;2024-03-08T11:22:42;9.60;99.90
10536;DHT22;5316;49.538;8.352;2024-03-08T11:25:33;9.70;99.90
10536;DHT22;5316;49.538;8.352;2024-03-08T11:28:13;9.70;99.90
10536;DHT22;5316;49.538;8.352;2024-03-08T11:30:46;9.60;99.90
10536;DHT22;5316;49.538;8.352;2024-03-08T11:33:14;9.50;99.90
10536;DHT22;5316;49.538;8.352;2024-03-08T11:35:42;9.50;99.90
10536;DHT22;5316;49.538;8.352;2024-03-08T11:38:11;9.50;99.90
10536;DHT22;5316;49.538;8.352;2024-03-08T11:40:40;9.50;99.90
10536;DHT22;5316;49.538;8.352;2024-03-08T11:43:08;9.50;99.90
10536;DHT22;5316;49.538;8.352;2024-03-08T11:45:35;9.50;99.90
10536;DHT22;5316;49.538;8.352;2024-03-08T11:48:03;9.60;99.90
10536;DHT22;5316;49.538;8.352;2024-03-08T11:50:30;9.70;99.90
10536;DHT22;5316;49.538;8.352;2024-03-08T11:53:00;9.80;99.90
10536;DHT22;5316;49.538;8.352;2024-03-08T11:55:28;9.90;99.90
10536;DHT22;5316;49.538;8.352;2024-03-08T11:58:01;9.90;99.90
10536;DHT22;5316;49.538;8.352;2024-03-08T12:00:28;10.00;99.90
10536;DHT22;5316;49.538;8.352;2024-03-08T12:03:05;10.00;99.90
10536;DHT22;5316;49.538;8.352;2024-03-08T12:05:32;10.00;99.90
10536;DHT22;5316;49.538;8.352;2024-03-08T12:08:00;10.10;99.90
10536;DHT22;5316;49.538;8.352;2024-03-08T12:10:28;10.00;99.90
10536;DHT22;5316;49.538;8.352;2024-03-08T12:12:56;10.10;99.90
10536;DHT22;5316;49.538;8.352;2024-03-08T12:15:26;10.20;99.90
10536;DHT22;5316;49.538;8.352;2024-03-08T12:17:55;10.20;99.90
10536;DHT22;5316;49.538;8.352;2024-03-08T12:20:24;10.20;99.90
10536;DHT22;5316;49.538;8.352;2024-03-08T12:22:52;10.30;99.90
10536;DHT22;5316;49.538;8.352;2024-03-08T12:25:19;10.30;99.90
10536;DHT22;5316;49.538;8.352;2024-03-08T12:27:46;10.40;99.90
10536;DHT22;5316;49.538;8.352;2024-03-08T12:30:18;10.50;99.90
10536;DHT22;5316;49.538;8.352;2024-03-08T12:32:50;10.50;99.90
10536;DHT22;5316;49.538;8.352;2024-03-08T12:35:19;10.50;99.90
10536;DHT22;5316;49.538;8.352;2024-03-08T12:37:49;10.50;99.90
10536;DHT22;5316;49.538;8.352;2024-03-08T12:40:17;10.50;99.90
10536;DHT22;5316;49.538;8.352;2024-03-08T12:42:44;10.50;99.90
10536;DHT22;5316;49.538;8.352;2024-03-08T12:45:13;10.60;99.90
10536;DHT22;5316;49.538;8.352;2024-03-08T12:47:40;10.70;99.90
10536;DHT22;5316;49.538;8.352;2024-03-08T12:50:09;10.80;99.90
10536;DHT22;5316;49.538;8.352;2024-03-08T12:52:36;10.80;99.90
10536;DHT22;5316;49.538;8.352;2024-03-08T12:55:03;10.90;99.90
10536;DHT22;5316;49.538;8.352;2024-03-08T12:57:32;11.10;99.90
10536;DHT22;5316;49.538;8.352;2024-03-08T13:00:00;11.10;99.90
10536;DHT22;5316;49.538;8.352;2024-03-08T13:02:28;11.10;99.90
10536;DHT22;5316;49.538;8.352;2024-03-08T13:04:56;11.20;99.90
10536;DHT22;5316;49.538;8.352;2024-03-08T13:07:25;11.20;99.90
10536;DHT22;5316;49.538;8.352;2024-03-08T13:09:52;11.30;99.90
10536;DHT22;5316;49.538;8.352;2024-03-08T13:12:19;11.40;99.90
10536;DHT22;5316;49.538;8.352;2024-03-08T13:14:46;11.50;99.90
10536;DHT22;5316;49.538;8.352;2024-03-08T13:17:13;11.60;99.90
10536;DHT22;5316;49.538;8.352;2024-03-08T13:19:40;11.70;99.90
10536;DHT22;5316;49.538;8.352;2024-03-08T13:22:07;11.80;99.90
10536;DHT22;5316;49.538;8.352;2024-03-08T13:24:39;11.90;99.90
10536;DHT22;5316;49.538;8.352;2024-03-08T13:27:07;12.10;99.90
10536;DHT22;5316;49.538;8.352;2024-03-08T13:29:45;12.20;99.90
10536;DHT22;5316;49.538;8.352;2024-03-08T13:32:12;12.50;99.90
10536;DHT22;5316;49.538;8.352;2024-03-08T13:34:41;12.70;98.50
10536;DHT22;5316;49.538;8.352;2024-03-08T13:37:08;12.90;75.40
10536;DHT22;5316;49.538;8.352;2024-03-08T13:39:35;13.00;53.30
10536;DHT22;5316;49.538;8.352;2024-03-08T13:42:07;13.20;35.90
10536;DHT22;5316;49.538;8.352;2024-03-08T13:44:35;13.30;28.60
10536;DHT22;5316;49.538;8.352;2024-03-08T13:47:02;13.40;10.40
10536;DHT22;5316;49.538;8.352;2024-03-08T13:49:30;13.50;1.00
10536;DHT22;5316;49.538;8.352;2024-03-08T13:51:58;13.60;1.00
10536;DHT22;5316;49.538;8.352;2024-03-08T13:54:25;13.80;1.00
10536;DHT22;5316;49.538;8.352;2024-03-08T13:56:56;14.00;1.00
10536;DHT22;5316;49.538;8.352;2024-03-08T13:59:24;14.20;1.00
10536;DHT22;5316;49.538;8.352;2024-03-08T14:01:55;14.30;1.00
10536;DHT22;5316;49.538;8.352;2024-03-08T14:04:22;14.40;1.00
10536;DHT22;5316;49.538;8.352;2024-03-08T14:06:49;14.50;1.00
10536;DHT22;5316;49.538;8.352;2024-03-08T14:09:17;14.60;1.00
10536;DHT22;5316;49.538;8.352;2024-03-08T14:11:44;14.70;1.00
10536;DHT22;5316;49.538;8.352;2024-03-08T14:14:11;14.80;1.00
10536;DHT22;5316;49.538;8.352;2024-03-08T14:16:39;15.10;1.00
10536;DHT22;5316;49.538;8.352;2024-03-08T14:19:06;15.30;1.00
10536;DHT22;5316;49.538;8.352;2024-03-08T14:21:35;15.60;1.00
10536;DHT22;5316;49.538;8.352;2024-03-08T14:24:05;15.80;1.00
10536;DHT22;5316;49.538;8.352;2024-03-08T14:26:32;16.00;1.00
10536;DHT22;5316;49.538;8.352;2024-03-08T14:28:59;16.20;1.00
10536;DHT22;5316;49.538;8.352;2024-03-08T14:31:26;16.40;1.00
10536;DHT22;5316;49.538;8.352;2024-03-08T14:33:54;16.70;1.00
10536;DHT22;5316;49.538;8.352;2024-03-08T14:36:22;16.90;1.00
10536;DHT22;5316;49.538;8.352;2024-03-08T14:38:51;17.10;1.00
10536;DHT22;5316;49.538;8.352;2024-03-08T14:41:18;17.30;1.00
10536;DHT22;5316;49.538;8.352;2024-03-08T14:43:44;17.50;1.00
10536;DHT22;5316;49.538;8.352;2024-03-08T14:46:13;17.60;1.00
10536;DHT22;5316;49.538;8.352;2024-03-08T14:48:42;17.70;1.00
10536;DHT22;5316;49.538;8.352;2024-03-08T14:51:11;17.80;1.00
10536;DHT22;5316;49.538;8.352;2024-03-08T14:53:41;17.90;1.00
10536;DHT22;5316;49.538;8.352;2024-03-08T14:56:08;18.10;1.00
10536;DHT22;5316;49.538;8.352;2024-03-08T14:58:35;18.20;1.00
10536;DHT22;5316;49.538;8.352;2024-03-08T15:01:03;18.40;1.00
10536;DHT22;5316;49.538;8.352;2024-03-08T15:03:35;18.40;1.00
10536;DHT22;5316;49.538;8.352;2024-03-08T15:06:03;18.60;1.00
10536;DHT22;5316;49.538;8.352;2024-03-08T15:08:35;18.80;1.00
10536;DHT22;5316;49.538;8.352;2024-03-08T15:11:02;18.90;1.00
10536;DHT22;5316;49.538;8.352;2024-03-08T15:13:29;19.00;1.00
10536;DHT22;5316;49.538;8.352;2024-03-08T15:16:05;19.10;1.00
10536;DHT22;5316;49.538;8.352;2024-03-08T15:18:33;19.30;1.00
10536;DHT22;5316;49.538;8.352;2024-03-08T15:21:02;19.40;1.00
10536;DHT22;5316;49.538;8.352;2024-03-08T15:23:32;19.60;1.00
10536;DHT22;5316;49.538;8.352;2024-03-08T15:26:00;19.80;1.00
10536;DHT22;5316;49.538;8.352;2024-03-08T15:28:29;19.90;1.00
10536;DHT22;5316;49.538;8.352;2024-03-08T15:31:02;20.10;1.00
10536;DHT22;5316;49.538;8.352;2024-03-08T15:33:32;20.20;1.00
10536;DHT22;5316;49.538;8.352;2024-03-08T15:35:59;20.20;1.00
10536;DHT22;5316;49.538;8.352;2024-03-08T15:38:29;20.20;1.00
10536;DHT22;5316;49.538;8.352;2024-03-08T15:40:57;20.00;1.00
10536;DHT22;5316;49.538;8.352;2024-03-08T15:43:25;20.00;1.00
10536;DHT22;5316;49.538;8.352;2024-03-08T15:45:51;20.10;1.00
10536;DHT22;5316;49.538;8.352;2024-03-08T15:48:20;19.90;1.00
10536;DHT22;5316;49.538;8.352;2024-03-08T15:50:47;19.90;1.00
10536;DHT22;5316;49.538;8.352;2024-03-08T15:53:15;19.80;1.00
10536;DHT22;5316;49.538;8.352;2024-03-08T15:55:41;19.60;1.00
10536;DHT22;5316;49.538;8.352;2024-03-08T15:58:09;19.50;1.00
10536;DHT22;5316;49.538;8.352;2024-03-08T16:00:38;19.40;1.00
10536;DHT22;5316;49.538;8.352;2024-03-08T16:03:12;19.30;1.00
10536;DHT22;5316;49.538;8.352;2024-03-08T16:05:39;19.30;1.00
10536;DHT22;5316;49.538;8.352;2024-03-08T16:08:07;19.20;1.00
10536;DHT22;5316;49.538;8.352;2024-03-08T16:10:35;19.00;1.00
10536;DHT22;5316;49.538;8.352;2024-03-08T16:13:02;18.80;1.00
10536;DHT22;5316;49.538;8.352;2024-03-08T16:15:29;18.70;1.00